createdAt,value
2019-05-19T00:00:11.936Z,21.10
2019-05-19T00:02:41.617Z,21.20
2019-05-19T00:05:13.011Z,20.43
2019-05-19T00:07:42.509Z,18.77
2019-05-19T00:10:12.128Z,20.00
2019-05-19T00:12:41.605Z,19.17
2019-05-19T00:15:11.141Z,19.33
2019-05-19T00:17:40.613Z,18.27
2019-05-19T00:20:10.015Z,18.80
2019-05-19T00:22:39.429Z,17.13
2019-05-19T00:25:09.308Z,17.10
2019-05-19T00:27:38.865Z,17.30
2019-05-19T00:30:08.549Z,17.47
2019-05-19T00:32:38.026Z,15.07
2019-05-19T00:35:07.602Z,16.43
2019-05-19T00:37:37.088Z,17.07
2019-05-19T00:40:06.757Z,16.50
2019-05-19T00:42:36.333Z,16.07
2019-05-19T00:45:06.523Z,16.20
2019-05-19T00:47:36.080Z,17.27
2019-05-19T00:50:06.383Z,17.87
2019-05-19T00:52:35.984Z,16.33
2019-05-19T00:55:05.839Z,15.97
2019-05-19T00:57:36.317Z,13.60
2019-05-19T01:00:07.576Z,15.03
2019-05-19T01:02:37.354Z,14.23
2019-05-19T01:05:07.447Z,14.60
2019-05-19T01:07:38.793Z,14.83
2019-05-19T01:10:08.288Z,15.43
2019-05-19T01:12:37.746Z,14.17
2019-05-19T01:15:08.864Z,15.63
2019-05-19T01:17:38.411Z,15.40
2019-05-19T01:20:07.998Z,15.33
2019-05-19T01:22:38.677Z,14.90
2019-05-19T01:25:08.162Z,14.73
2019-05-19T01:27:37.645Z,15.40
2019-05-19T01:30:08.609Z,17.40
2019-05-19T01:32:38.238Z,15.80
2019-05-19T01:35:08.311Z,14.57
2019-05-19T01:37:37.791Z,16.90
2019-05-19T01:40:07.390Z,15.17
2019-05-19T01:42:36.940Z,15.80
2019-05-19T01:45:07.200Z,16.70
2019-05-19T01:47:36.700Z,16.07
2019-05-19T01:50:17.783Z,16.30
2019-05-19T01:52:38.783Z,17.37
2019-05-19T01:55:08.451Z,16.17
2019-05-19T01:57:37.914Z,16.37
2019-05-19T02:00:08.033Z,16.03
2019-05-19T02:02:37.542Z,15.77
2019-05-19T02:05:07.606Z,15.90
2019-05-19T02:07:38.191Z,14.83
2019-05-19T02:10:08.848Z,13.83
2019-05-19T02:12:39.217Z,14.10
2019-05-19T02:15:09.750Z,13.83
2019-05-19T02:17:39.342Z,14.20
2019-05-19T02:20:09.087Z,13.33
2019-05-19T02:22:39.786Z,13.23
2019-05-19T02:25:09.435Z,14.87
2019-05-19T02:27:39.706Z,14.77
2019-05-19T02:30:09.648Z,15.10
2019-05-19T02:32:39.131Z,14.43
2019-05-19T02:35:08.891Z,14.10
2019-05-19T02:37:38.434Z,14.53
2019-05-19T02:40:08.075Z,14.63
2019-05-19T02:42:39.053Z,13.23
2019-05-19T02:45:08.686Z,13.77
2019-05-19T02:47:39.738Z,14.33
2019-05-19T02:50:09.403Z,12.93
2019-05-19T02:52:41.168Z,14.40
2019-05-19T02:55:10.726Z,13.37
2019-05-19T02:57:41.583Z,13.10
2019-05-19T03:00:12.607Z,12.67
2019-05-19T03:02:42.000Z,12.50
2019-05-19T03:05:11.725Z,12.17
2019-05-19T03:07:41.135Z,11.80
2019-05-19T03:10:10.795Z,11.90
2019-05-19T03:12:40.315Z,12.60
2019-05-19T03:15:09.831Z,11.33
2019-05-19T03:17:39.306Z,11.80
2019-05-19T03:20:08.862Z,11.57
2019-05-19T03:22:39.611Z,10.93
2019-05-19T03:25:09.172Z,11.33
2019-05-19T03:27:38.578Z,12.40
2019-05-19T03:30:24.914Z,11.63
2019-05-19T03:33:12.581Z,12.90
2019-05-19T03:35:42.198Z,12.20
2019-05-19T03:38:11.651Z,11.90
2019-05-19T03:40:41.166Z,11.83
2019-05-19T03:43:10.640Z,11.10
2019-05-19T03:45:40.284Z,11.43
2019-05-19T03:48:09.812Z,11.73
2019-05-19T03:50:39.363Z,12.17
2019-05-19T03:53:08.898Z,11.67
2019-05-19T03:55:38.391Z,10.80
2019-05-19T03:58:07.929Z,10.23
2019-05-19T04:00:37.436Z,11.10
2019-05-19T04:03:06.904Z,10.60
2019-05-19T04:05:36.698Z,11.10
2019-05-19T04:08:06.259Z,11.33
2019-05-19T04:10:35.710Z,10.03
2019-05-19T04:13:05.156Z,12.07
2019-05-19T04:15:34.724Z,10.57
2019-05-19T04:18:04.279Z,10.30
2019-05-19T04:20:33.768Z,11.80
2019-05-19T04:23:03.284Z,10.60
2019-05-19T04:25:32.705Z,10.03
2019-05-19T04:28:02.201Z,11.07
2019-05-19T04:30:31.688Z,10.93
2019-05-19T04:33:01.078Z,11.97
2019-05-19T04:35:30.490Z,11.33
2019-05-19T04:37:59.995Z,10.70
2019-05-19T04:40:29.397Z,10.37
2019-05-19T04:42:58.796Z,11.17
2019-05-19T04:45:28.320Z,10.80
2019-05-19T04:47:57.810Z,9.97
2019-05-19T04:50:27.294Z,11.03
2019-05-19T04:52:56.811Z,10.80
2019-05-19T04:55:26.294Z,10.53
2019-05-19T04:57:55.769Z,10.70
2019-05-19T05:00:25.192Z,11.43
2019-05-19T05:02:54.699Z,10.50
2019-05-19T05:05:24.218Z,9.73
2019-05-19T05:07:53.694Z,9.87
2019-05-19T05:10:23.159Z,11.03
2019-05-19T05:12:52.738Z,10.17
2019-05-19T05:15:22.194Z,10.27
2019-05-19T05:17:51.604Z,10.40
2019-05-19T05:20:21.109Z,10.03
2019-05-19T05:22:50.511Z,10.03
2019-05-19T05:25:19.990Z,10.27
2019-05-19T05:27:49.470Z,9.93
2019-05-19T05:30:19.832Z,9.73
2019-05-19T05:32:49.280Z,9.67
2019-05-19T05:35:18.700Z,9.93
2019-05-19T05:37:48.326Z,10.53
2019-05-19T05:40:17.881Z,10.43
2019-05-19T05:42:47.309Z,9.83
2019-05-19T05:45:16.788Z,10.20
2019-05-19T05:47:46.434Z,10.20
2019-05-19T05:50:15.938Z,11.00
2019-05-19T05:52:45.447Z,10.63
2019-05-19T05:55:15.003Z,11.00
2019-05-19T05:57:44.490Z,12.00
2019-05-19T06:00:15.813Z,12.63
2019-05-19T06:02:45.240Z,12.03
2019-05-19T06:05:14.782Z,12.53
2019-05-19T06:07:44.300Z,12.30
2019-05-19T06:10:14.552Z,13.80
2019-05-19T06:12:44.004Z,12.77
2019-05-19T06:15:13.556Z,14.23
2019-05-19T06:17:43.189Z,14.20
2019-05-19T06:20:12.699Z,13.93
2019-05-19T06:22:55.195Z,14.17
2019-05-19T06:25:13.365Z,13.37
2019-05-19T06:27:42.825Z,13.77
2019-05-19T06:30:12.509Z,13.23
2019-05-19T06:32:43.614Z,15.93
2019-05-19T06:35:13.248Z,15.30
2019-05-19T06:37:42.720Z,13.53
2019-05-19T06:40:12.736Z,14.77
2019-05-19T06:42:42.217Z,14.33
2019-05-19T06:45:11.696Z,15.10
2019-05-19T06:47:41.256Z,13.97
2019-05-19T06:50:12.190Z,14.10
2019-05-19T06:52:41.662Z,14.53
2019-05-19T06:55:11.601Z,14.23
2019-05-19T06:57:41.041Z,14.70
2019-05-19T07:00:11.067Z,15.50
2019-05-19T07:02:40.565Z,14.80
2019-05-19T07:05:10.180Z,15.23
2019-05-19T07:07:39.581Z,15.57
2019-05-19T07:10:09.059Z,15.43
2019-05-19T07:12:40.267Z,13.87
2019-05-19T07:15:10.452Z,14.63
2019-05-19T07:17:39.869Z,14.47
2019-05-19T07:20:09.571Z,15.77
2019-05-19T07:22:39.094Z,15.37
2019-05-19T07:25:08.662Z,13.33
2019-05-19T07:27:38.139Z,14.33
2019-05-19T07:30:07.960Z,16.12
2019-05-19T07:32:37.387Z,14.50
2019-05-19T07:35:07.603Z,15.55
2019-05-19T07:37:37.091Z,14.47
2019-05-19T07:40:06.663Z,14.13
2019-05-19T07:42:36.198Z,15.08
2019-05-19T07:45:06.242Z,16.37
2019-05-19T07:47:35.734Z,14.70
2019-05-19T07:50:06.118Z,15.17
2019-05-19T07:52:35.511Z,15.47
2019-05-19T07:55:06.486Z,16.25
2019-05-19T07:57:35.969Z,15.83
2019-05-19T08:00:08.878Z,15.87
2019-05-19T08:02:38.668Z,18.52
2019-05-19T08:05:08.196Z,15.97
2019-05-19T08:07:37.702Z,16.95
2019-05-19T08:10:07.237Z,17.97
2019-05-19T08:12:36.735Z,17.67
2019-05-19T08:15:06.764Z,17.77
2019-05-19T08:17:36.242Z,17.20
2019-05-19T08:20:06.752Z,15.80
2019-05-19T08:22:36.251Z,16.80
2019-05-19T08:25:07.209Z,17.13
2019-05-19T08:27:36.754Z,17.30
2019-05-19T08:30:07.688Z,17.17
2019-05-19T08:32:37.113Z,16.40
2019-05-19T08:35:07.315Z,15.23
2019-05-19T08:37:37.785Z,16.47
2019-05-19T08:40:07.506Z,15.43
2019-05-19T08:42:37.063Z,16.03
2019-05-19T08:45:07.144Z,17.07
2019-05-19T08:47:36.711Z,16.80
2019-05-19T08:50:06.698Z,17.53
2019-05-19T08:52:36.218Z,17.60
2019-05-19T08:55:05.865Z,17.30
2019-05-19T08:57:35.294Z,16.67
2019-05-19T09:00:06.888Z,17.37
2019-05-19T09:02:36.478Z,16.30
2019-05-19T09:05:06.191Z,16.73
2019-05-19T09:07:35.692Z,17.67
2019-05-19T09:10:07.112Z,15.73
2019-05-19T09:12:38.379Z,16.87
2019-05-19T09:15:09.181Z,17.10
2019-05-19T09:17:38.715Z,16.63
2019-05-19T09:20:08.389Z,17.60
2019-05-19T09:22:37.892Z,16.83
2019-05-19T09:25:08.046Z,15.93
2019-05-19T09:27:37.531Z,15.77
2019-05-19T09:30:08.177Z,16.90
2019-05-19T09:32:37.746Z,17.50
2019-05-19T09:35:07.686Z,15.30
2019-05-19T09:37:37.201Z,14.53
2019-05-19T09:40:08.544Z,15.13
2019-05-19T09:42:37.980Z,15.77
2019-05-19T09:45:07.926Z,12.43
2019-05-19T09:47:37.862Z,13.87
2019-05-19T09:50:07.851Z,13.60
2019-05-19T09:52:37.507Z,12.87
2019-05-19T09:55:07.419Z,11.60
2019-05-19T09:57:37.159Z,12.33
2019-05-19T10:00:07.187Z,12.37
2019-05-19T10:02:36.920Z,12.20
2019-05-19T10:05:07.502Z,11.90
2019-05-19T10:07:36.989Z,11.70
2019-05-19T10:10:08.027Z,12.03
2019-05-19T10:12:37.526Z,12.13
2019-05-19T10:15:07.192Z,11.87
2019-05-19T10:17:36.752Z,11.30
2019-05-19T10:20:07.598Z,11.93
2019-05-19T10:22:38.868Z,12.53
2019-05-19T10:25:21.793Z,12.23
2019-05-19T10:27:40.941Z,14.20
2019-05-19T10:30:11.137Z,12.30
2019-05-19T10:32:42.217Z,13.00
2019-05-19T10:35:11.768Z,12.57
2019-05-19T10:37:41.271Z,12.07
2019-05-19T10:40:11.331Z,14.63
2019-05-19T10:42:40.774Z,14.80
2019-05-19T10:45:11.513Z,14.13
2019-05-19T10:47:40.988Z,14.33
2019-05-19T10:50:10.492Z,13.67
2019-05-19T10:52:40.052Z,14.28
2019-05-19T10:55:10.634Z,12.83
2019-05-19T10:57:40.143Z,12.07
2019-05-19T11:00:09.637Z,13.43
2019-05-19T11:02:39.160Z,13.80
2019-05-19T11:05:11.172Z,11.75
2019-05-19T11:07:39.947Z,12.40
2019-05-19T11:10:09.651Z,8.80
2019-05-19T11:12:39.958Z,8.07
2019-05-19T11:15:09.568Z,7.73
2019-05-19T11:17:39.102Z,6.60
2019-05-19T11:20:08.763Z,7.78
2019-05-19T11:22:38.264Z,7.65
2019-05-19T11:25:07.743Z,7.58
2019-05-19T11:27:37.263Z,6.00
2019-05-19T11:30:06.924Z,6.13
2019-05-19T11:32:36.382Z,6.80
2019-05-19T11:35:07.132Z,5.30
2019-05-19T11:37:36.582Z,4.87
2019-05-19T11:40:06.055Z,5.00
2019-05-19T11:42:35.641Z,4.80
2019-05-19T11:45:06.615Z,5.13
2019-05-19T11:47:36.247Z,4.30
2019-05-19T11:50:06.125Z,4.27
2019-05-19T11:52:35.596Z,4.67
2019-05-19T11:55:05.997Z,4.30
2019-05-19T11:57:35.466Z,4.67
2019-05-19T12:00:06.082Z,4.50
2019-05-19T12:02:35.720Z,4.40
2019-05-19T12:05:05.291Z,5.03
2019-05-19T12:07:34.872Z,4.30
2019-05-19T12:10:07.248Z,4.47
2019-05-19T12:12:36.760Z,4.53
2019-05-19T12:15:06.706Z,4.28
2019-05-19T12:17:37.635Z,4.50
2019-05-19T12:20:07.638Z,4.23
2019-05-19T12:22:37.313Z,5.30
2019-05-19T12:25:07.978Z,4.73
2019-05-19T12:27:37.560Z,4.70
2019-05-19T12:30:07.673Z,4.70
2019-05-19T12:32:37.137Z,4.90
2019-05-19T12:35:06.611Z,5.50
2019-05-19T12:37:36.104Z,5.00
2019-05-19T12:40:05.861Z,5.50
2019-05-19T12:42:35.812Z,5.40
2019-05-19T12:45:06.883Z,4.93
2019-05-19T12:47:36.530Z,4.60
2019-05-19T12:50:06.527Z,5.50
2019-05-19T12:52:36.082Z,5.90
2019-05-19T12:55:05.759Z,6.20
2019-05-19T12:57:35.218Z,6.13
2019-05-19T13:00:05.102Z,5.50
2019-05-19T13:02:37.618Z,6.20
2019-05-19T13:05:07.026Z,6.37
2019-05-19T13:07:36.546Z,6.10
2019-05-19T13:10:09.015Z,6.23
2019-05-19T13:12:38.495Z,6.37
2019-05-19T13:15:08.057Z,6.10
2019-05-19T13:17:37.459Z,5.90
2019-05-19T13:20:08.026Z,6.30
2019-05-19T13:22:37.494Z,7.10
2019-05-19T13:25:07.071Z,7.10
2019-05-19T13:27:36.545Z,6.80
2019-05-19T13:30:07.009Z,6.47
2019-05-19T13:32:36.495Z,6.10
2019-05-19T13:35:06.547Z,6.20
2019-05-19T13:37:36.041Z,5.83
2019-05-19T13:40:05.820Z,5.17
2019-05-19T13:42:35.225Z,5.30
2019-05-19T13:45:06.072Z,4.90
2019-05-19T13:47:35.521Z,5.10
2019-05-19T13:50:06.285Z,5.83
2019-05-19T13:52:35.750Z,5.40
2019-05-19T13:55:05.922Z,5.23
2019-05-19T13:57:35.395Z,5.73
2019-05-19T14:00:05.300Z,5.47
2019-05-19T14:02:36.221Z,5.73
2019-05-19T14:05:05.770Z,5.97
2019-05-19T14:07:35.222Z,6.63
2019-05-19T14:10:06.286Z,6.53
2019-05-19T14:12:36.094Z,7.13
2019-05-19T14:15:06.044Z,6.63
2019-05-19T14:17:35.504Z,7.10
2019-05-19T14:20:08.200Z,6.97
2019-05-19T14:22:37.797Z,7.27
2019-05-19T14:25:07.340Z,7.00
2019-05-19T14:27:36.763Z,6.53
2019-05-19T14:30:06.679Z,6.30
2019-05-19T14:32:36.206Z,6.47
2019-05-19T14:35:06.766Z,5.83
2019-05-19T14:37:36.145Z,6.20
2019-05-19T14:40:06.767Z,5.97
2019-05-19T14:42:43.960Z,6.20
2019-05-19T14:45:13.794Z,6.10
2019-05-19T14:47:43.278Z,5.60
2019-05-19T14:50:12.831Z,5.67
2019-05-19T14:52:42.362Z,6.30
2019-05-19T14:55:11.900Z,5.87
2019-05-19T14:57:44.802Z,6.33
2019-05-19T15:00:13.942Z,5.37
2019-05-19T15:02:43.353Z,5.58
2019-05-19T15:05:12.874Z,5.23
2019-05-19T15:07:42.406Z,5.33
2019-05-19T15:10:13.582Z,5.60
2019-05-19T15:12:44.069Z,5.70
2019-05-19T15:15:13.616Z,5.40
2019-05-19T15:17:43.098Z,6.03
2019-05-19T15:20:12.895Z,5.83
2019-05-19T15:22:42.328Z,6.17
2019-05-19T15:25:11.870Z,6.50
2019-05-19T15:27:41.282Z,6.73
2019-05-19T15:30:13.381Z,6.40
2019-05-19T15:32:42.001Z,7.30
2019-05-19T15:35:11.576Z,6.80
2019-05-19T15:37:40.987Z,6.30
2019-05-19T15:40:10.641Z,6.80
2019-05-19T15:42:40.021Z,6.97
2019-05-19T15:45:09.891Z,6.70
2019-05-19T15:47:39.347Z,7.10
2019-05-19T15:50:09.059Z,7.53
2019-05-19T15:52:38.569Z,7.00
2019-05-19T15:55:08.027Z,7.33
2019-05-19T15:57:37.456Z,6.77
2019-05-19T16:00:07.183Z,6.10
2019-05-19T16:02:37.819Z,6.57
2019-05-19T16:05:08.070Z,7.63
2019-05-19T16:07:37.470Z,7.12
2019-05-19T16:10:07.829Z,6.95
2019-05-19T16:12:38.697Z,6.70
2019-05-19T16:15:09.136Z,6.50
2019-05-19T16:17:38.619Z,6.00
2019-05-19T16:20:08.629Z,6.80
2019-05-19T16:22:38.097Z,6.97
2019-05-19T16:25:07.744Z,6.60
2019-05-19T16:27:37.238Z,7.00
2019-05-19T16:30:07.598Z,7.05
2019-05-19T16:32:38.185Z,6.43
2019-05-19T16:35:07.817Z,5.30
2019-05-19T16:37:37.466Z,5.80
2019-05-19T16:40:06.946Z,6.23
2019-05-19T16:42:36.414Z,6.47
2019-05-19T16:45:07.271Z,6.27
2019-05-19T16:47:36.765Z,6.30
2019-05-19T16:50:07.333Z,5.97
2019-05-19T16:52:37.980Z,5.80
2019-05-19T16:55:27.282Z,5.47
2019-05-19T16:57:56.748Z,5.87
2019-05-19T17:00:27.596Z,5.90
2019-05-19T17:02:57.114Z,5.67
2019-05-19T17:05:26.538Z,4.23
2019-05-19T17:07:56.237Z,4.60
2019-05-19T17:10:25.888Z,5.13
2019-05-19T17:12:55.331Z,5.70
2019-05-19T17:15:24.891Z,4.53
2019-05-19T17:17:54.407Z,4.47
2019-05-19T17:20:23.949Z,4.60
2019-05-19T17:22:54.524Z,2.60
2019-05-19T17:25:24.077Z,2.67
2019-05-19T17:27:53.468Z,2.77
2019-05-19T17:30:23.067Z,2.63
2019-05-19T17:32:52.550Z,2.27
2019-05-19T17:35:22.078Z,2.67
2019-05-19T17:37:51.515Z,3.03
2019-05-19T17:40:21.056Z,2.90
2019-05-19T17:42:50.529Z,2.33
2019-05-19T17:45:20.074Z,3.27
2019-05-19T17:47:49.477Z,3.63
2019-05-19T17:50:20.481Z,4.60
2019-05-19T17:52:49.965Z,4.27
2019-05-19T17:55:19.496Z,5.67
2019-05-19T17:57:49.120Z,5.27
2019-05-19T18:00:20.164Z,4.10
2019-05-19T18:02:49.658Z,4.70
2019-05-19T18:05:19.077Z,4.37
2019-05-19T18:07:48.591Z,3.93
2019-05-19T18:10:18.213Z,5.83
2019-05-19T18:12:47.684Z,4.53
2019-05-19T18:15:17.316Z,4.37
2019-05-19T18:17:46.770Z,4.83
2019-05-19T18:20:23.680Z,4.67
2019-05-19T18:22:47.448Z,4.70
2019-05-19T18:25:16.935Z,4.83
2019-05-19T18:27:46.481Z,5.33
2019-05-19T18:30:16.308Z,5.30
2019-05-19T18:32:45.865Z,5.73
2019-05-19T18:35:15.432Z,6.80
2019-05-19T18:37:44.959Z,7.13
2019-05-19T18:40:14.546Z,6.70
2019-05-19T18:42:44.102Z,6.63
2019-05-19T18:45:13.789Z,6.67
2019-05-19T18:47:43.222Z,5.50
2019-05-19T18:50:12.927Z,7.00
2019-05-19T18:52:42.434Z,6.70
2019-05-19T18:55:11.933Z,6.30
2019-05-19T18:57:41.473Z,6.47
2019-05-19T19:00:12.046Z,6.63
2019-05-19T19:02:41.571Z,7.47
2019-05-19T19:05:11.097Z,5.67
2019-05-19T19:07:48.154Z,4.80
2019-05-19T19:10:17.727Z,5.43
2019-05-19T19:12:47.662Z,5.30
2019-05-19T19:15:18.314Z,5.13
2019-05-19T19:17:47.733Z,4.00
2019-05-19T19:20:17.408Z,4.43
2019-05-19T19:22:46.906Z,4.07
2019-05-19T19:25:16.387Z,4.30
2019-05-19T19:27:45.968Z,4.70
2019-05-19T19:30:15.683Z,4.87
2019-05-19T19:32:45.152Z,4.10
2019-05-19T19:35:16.308Z,4.00
2019-05-19T19:37:45.883Z,3.40
2019-05-19T19:40:16.915Z,3.47
2019-05-19T19:42:46.713Z,2.80
2019-05-19T19:45:16.483Z,4.37
2019-05-19T19:47:46.189Z,4.20
2019-05-19T19:50:15.887Z,6.23
2019-05-19T19:52:45.641Z,5.13
2019-05-19T19:55:16.252Z,3.13
2019-05-19T19:57:45.669Z,6.60
2019-05-19T20:00:18.706Z,4.47
2019-05-19T20:02:47.738Z,7.33
2019-05-19T20:05:17.292Z,7.63
2019-05-19T20:07:46.694Z,6.40
2019-05-19T20:10:16.179Z,6.47
2019-05-19T20:12:45.680Z,7.22
2019-05-19T20:15:15.696Z,7.83
2019-05-19T20:17:45.119Z,8.70
2019-05-19T20:20:14.768Z,8.83
2019-05-19T20:22:44.177Z,8.10
2019-05-19T20:25:14.025Z,5.97
2019-05-19T20:27:43.541Z,7.03
2019-05-19T20:30:13.170Z,5.33
2019-05-19T20:32:42.634Z,5.33
2019-05-19T20:35:12.187Z,7.43
2019-05-19T20:37:42.867Z,8.10
2019-05-19T20:40:13.881Z,8.50
2019-05-19T20:42:43.342Z,8.03
2019-05-19T20:45:13.148Z,7.70
2019-05-19T20:47:42.602Z,8.63
2019-05-19T20:50:12.076Z,8.20
2019-05-19T20:52:42.830Z,7.53
2019-05-19T20:55:12.366Z,7.50
2019-05-19T20:57:41.858Z,7.77
2019-05-19T21:00:11.515Z,8.93
2019-05-19T21:02:41.010Z,8.97
2019-05-19T21:05:10.623Z,9.70
2019-05-19T21:07:40.100Z,10.07
2019-05-19T21:10:09.604Z,12.07
2019-05-19T21:12:39.117Z,13.33
2019-05-19T21:15:10.056Z,13.40
2019-05-19T21:17:39.578Z,14.53
2019-05-19T21:20:09.097Z,14.23
2019-05-19T21:22:38.708Z,14.47
2019-05-19T21:25:08.383Z,14.20
2019-05-19T21:27:37.886Z,15.00
2019-05-19T21:30:08.588Z,14.00
2019-05-19T21:32:38.066Z,13.77
2019-05-19T21:35:07.617Z,13.70
2019-05-19T21:37:37.258Z,13.43
2019-05-19T21:40:06.741Z,13.97
2019-05-19T21:42:36.158Z,14.17
2019-05-19T21:45:06.637Z,14.30
2019-05-19T21:47:36.332Z,14.20
2019-05-19T21:50:07.458Z,14.33
2019-05-19T21:52:36.942Z,14.77
2019-05-19T21:55:07.526Z,14.87
2019-05-19T21:57:36.992Z,16.80
2019-05-19T22:00:08.043Z,17.80
2019-05-19T22:02:39.196Z,17.13
2019-05-19T22:05:09.745Z,17.33
2019-05-19T22:07:46.851Z,19.27
2019-05-19T22:10:16.407Z,20.10
2019-05-19T22:12:45.862Z,21.03
2019-05-19T22:15:15.298Z,19.20
2019-05-19T22:17:44.807Z,20.27
2019-05-19T22:20:14.357Z,16.07
2019-05-19T22:22:43.834Z,16.53
2019-05-19T22:25:13.331Z,16.20
2019-05-19T22:27:42.834Z,17.17
2019-05-19T22:30:13.568Z,17.83
2019-05-19T22:32:43.103Z,18.57
2019-05-19T22:35:13.202Z,17.60
2019-05-19T22:37:42.697Z,19.37
2019-05-19T22:40:12.190Z,18.53
2019-05-19T22:42:41.766Z,18.93
2019-05-19T22:45:12.478Z,19.67
2019-05-19T22:47:41.889Z,19.83
2019-05-19T22:50:11.469Z,20.73
2019-05-19T22:52:41.005Z,22.37
2019-05-19T22:55:10.542Z,24.20
2019-05-19T22:57:41.143Z,24.40
2019-05-19T23:00:11.103Z,25.73
2019-05-19T23:02:42.174Z,25.63
2019-05-19T23:05:11.791Z,26.33
2019-05-19T23:07:42.270Z,25.73
2019-05-19T23:10:11.825Z,26.13
2019-05-19T23:12:41.233Z,26.13
2019-05-19T23:15:10.737Z,25.73
2019-05-19T23:17:41.701Z,26.80
2019-05-19T23:20:11.371Z,24.60
2019-05-19T23:22:40.786Z,23.90
2019-05-19T23:25:10.345Z,23.33
2019-05-19T23:27:39.858Z,22.90
2019-05-19T23:30:09.808Z,22.73
2019-05-19T23:32:39.227Z,23.13
2019-05-19T23:35:08.813Z,22.50
2019-05-19T23:37:38.310Z,22.03
2019-05-19T23:40:08.970Z,24.30
2019-05-19T23:42:38.497Z,22.63
2019-05-19T23:45:09.023Z,23.93
2019-05-19T23:47:38.453Z,22.43
2019-05-19T23:50:07.978Z,22.83
2019-05-19T23:52:37.414Z,23.63
2019-05-19T23:55:07.112Z,22.43
2019-05-19T23:57:36.545Z,22.53
